메인 페이지
METAR-TAF:

METAR-TAF

공항 :

Puerto Barrios, 과테말라

위도: 15-43N, 경도: 088-36W, 고도: 1m

현재 날씨관측

예보는 48분 전, 07:00시(UTC)에 발표되었습니다.
무풍
온도 26°C
습도 89%
기압 1006 hPa
시정 10km 이상
고도 1600ft 상공 구름 보통
고도 8000ft 상공 구름 많음

METAR: MGPB 210700Z 00000KT 9999 SCT016 BKN080 26/24 Q1006 A2971

시각: 01:48 (07:48 UTC)

예보

예보는 2 시간 48분 전, 05:00시(UTC)에 발표되었습니다.
예보 대상 시간: 21일 06시부터 22일 06시까지 (UTC)
kt
시정 10km 이상
고도 1600ft 상공 구름 많음
고도 8000ft 상공 구름 많음
일시적
21일 06시부터 21일 12시까지 (UTC)
시정: 7000m
고도 1400ft 상공 구름 많음
비, 이슬비
전환 중
21일 16시부터 21일 18시까지 (UTC)
여러 방향의 바람 3kt
고도 1800ft 상공 구름 보통
확률 40% :
일시적
21일 18시부터 22일 04시까지 (UTC)
시정: 8000m
고도 2000ft 상공 구름 보통, 타워링 적운.
고도 2500ft 상공 구름 조금, 적란운.
시계 내 뇌우, 비
전환 중
22일 00시부터 22일 02시까지 (UTC)
kt
고도 1600ft 상공 구름 보통

TAF: MGPB 210500Z 2106/2206 00000KT 9999 BKN016 BKN080 TX28/2120Z TN23/2112Z TEMPO 2106/2112 7000 RADZ BKN014 BECMG 2116/2118 VRB03KT SCT018 PROB40 TEMPO 2118/2204 8000 VCTSRA SCT020TCU FEW025CB BECMG 2200/2202 00000KT SCT016

4,000개 이상의 공항 관측 자료 및 예보 (METAR 및 TAF 보고).

지도상에서 검색 가능한 기상관측소가 노란 점과 빨간 점으로 표시되어 있습니다.

기상관측소 명을 보려면 표시 위로 마우스를 이동하세요.

날씨 관측과 예보를 보려면 클릭하세요.

지도 변경 : 확대하려면 엑스 표시가 있는 녹색 버튼, 축소하려면 빼기 표시가 있는 녹색 버튼, 다음 페이지의 지도를 보려면 녹색 화살표를 클릭하세요.


METAR-TAF: